sensor_id;sensor_type;location;lat;lon;timestamp;temperature;humidity
35563;DHT22;21665;40.108;18.302;2023-03-16T07:07:47;14.60;99.90
35563;DHT22;21665;40.108;18.302;2023-03-16T07:10:16;14.50;99.90
35563;DHT22;21665;40.108;18.302;2023-03-16T07:12:43;14.30;99.90
35563;DHT22;21665;40.108;18.302;2023-03-16T07:15:10;14.50;99.90
35563;DHT22;21665;40.108;18.302;2023-03-16T07:17:38;14.40;99.90
35563;DHT22;21665;40.108;18.302;2023-03-16T07:20:07;14.20;99.90
35563;DHT22;21665;40.108;18.302;2023-03-16T07:22:37;14.50;99.90
35563;DHT22;21665;40.108;18.302;2023-03-16T07:25:06;14.80;99.90
35563;DHT22;21665;40.108;18.302;2023-03-16T07:27:33;14.70;99.90
35563;DHT22;21665;40.108;18.302;2023-03-16T07:30:04;14.60;99.90
35563;DHT22;21665;40.108;18.302;2023-03-16T07:32:33;14.50;99.90
35563;DHT22;21665;40.108;18.302;2023-03-16T07:35:00;14.50;99.90
35563;DHT22;21665;40.108;18.302;2023-03-16T07:37:30;14.40;99.90
35563;DHT22;21665;40.108;18.302;2023-03-16T07:39:59;14.40;99.90
35563;DHT22;21665;40.108;18.302;2023-03-16T07:42:26;14.60;99.90
35563;DHT22;21665;40.108;18.302;2023-03-16T07:45:20;14.70;99.90
35563;DHT22;21665;40.108;18.302;2023-03-16T07:47:46;14.70;99.90
35563;DHT22;21665;40.108;18.302;2023-03-16T07:50:25;14.70;99.90
35563;DHT22;21665;40.108;18.302;2023-03-16T07:52:55;14.70;99.90
35563;DHT22;21665;40.108;18.302;2023-03-16T07:55:22;14.70;99.90
35563;DHT22;21665;40.108;18.302;2023-03-16T07:57:50;15.10;99.90
35563;DHT22;21665;40.108;18.302;2023-03-16T08:00:24;15.00;99.90
35563;DHT22;21665;40.108;18.302;2023-03-16T08:02:51;14.90;99.90
35563;DHT22;21665;40.108;18.302;2023-03-16T08:05:19;14.80;99.90
35563;DHT22;21665;40.108;18.302;2023-03-16T08:08:03;14.60;99.90
35563;DHT22;21665;40.108;18.302;2023-03-16T08:10:32;14.90;99.90
35563;DHT22;21665;40.108;18.302;2023-03-16T08:13:05;15.10;99.90
35563;DHT22;21665;40.108;18.302;2023-03-16T08:15:33;15.10;99.90
35563;DHT22;21665;40.108;18.302;2023-03-16T08:18:07;14.90;99.90
35563;DHT22;21665;40.108;18.302;2023-03-16T08:20:34;15.00;99.90
35563;DHT22;21665;40.108;18.302;2023-03-16T08:23:01;15.10;99.90
35563;DHT22;21665;40.108;18.302;2023-03-16T08:25:38;14.70;99.90
35563;DHT22;21665;40.108;18.302;2023-03-16T08:28:16;14.30;99.90
35563;DHT22;21665;40.108;18.302;2023-03-16T08:30:46;13.90;99.90
35563;DHT22;21665;40.108;18.302;2023-03-16T08:33:44;14.20;99.90
35563;DHT22;21665;40.108;18.302;2023-03-16T08:36:15;14.20;99.90
35563;DHT22;21665;40.108;18.302;2023-03-16T08:38:46;13.80;99.90
35563;DHT22;21665;40.108;18.302;2023-03-16T08:41:13;13.60;99.90
35563;DHT22;21665;40.108;18.302;2023-03-16T08:43:42;14.20;99.90
35563;DHT22;21665;40.108;18.302;2023-03-16T08:46:09;14.60;99.90
35563;DHT22;21665;40.108;18.302;2023-03-16T08:48:54;15.00;99.90
35563;DHT22;21665;40.108;18.302;2023-03-16T08:51:24;14.80;99.90
35563;DHT22;21665;40.108;18.302;2023-03-16T08:53:54;14.80;99.90
35563;DHT22;21665;40.108;18.302;2023-03-16T08:56:20;14.70;99.90
35563;DHT22;21665;40.108;18.302;2023-03-16T08:58:47;14.70;99.90
35563;DHT22;21665;40.108;18.302;2023-03-16T09:01:15;14.60;99.90
35563;DHT22;21665;40.108;18.302;2023-03-16T09:03:45;14.50;99.90
35563;DHT22;21665;40.108;18.302;2023-03-16T09:06:13;14.40;99.90
35563;DHT22;21665;40.108;18.302;2023-03-16T09:08:40;14.30;99.90
35563;DHT22;21665;40.108;18.302;2023-03-16T12:59:56;13.60;99.90
35563;DHT22;21665;40.108;18.302;2023-03-16T13:02:28;13.60;99.90
35563;DHT22;21665;40.108;18.302;2023-03-16T13:05:01;13.50;99.90
35563;DHT22;21665;40.108;18.302;2023-03-16T13:07:30;13.30;99.90
35563;DHT22;21665;40.108;18.302;2023-03-16T13:10:05;12.90;99.90
35563;DHT22;21665;40.108;18.302;2023-03-16T13:12:36;12.90;99.90
35563;DHT22;21665;40.108;18.302;2023-03-16T13:17:48;13.50;99.90
35563;DHT22;21665;40.108;18.302;2023-03-16T13:20:25;13.60;99.90
35563;DHT22;21665;40.108;18.302;2023-03-16T13:23:19;13.60;99.90
35563;DHT22;21665;40.108;18.302;2023-03-16T13:26:17;13.50;99.90
35563;DHT22;21665;40.108;18.302;2023-03-16T13:28:53;13.40;99.90
35563;DHT22;21665;40.108;18.302;2023-03-16T13:31:39;13.10;99.90
35563;DHT22;21665;40.108;18.302;2023-03-16T13:34:12;13.10;99.90
35563;DHT22;21665;40.108;18.302;2023-03-16T13:36:40;13.10;99.90
35563;DHT22;21665;40.108;18.302;2023-03-16T13:39:17;13.30;99.90
35563;DHT22;21665;40.108;18.302;2023-03-16T16:54:34;11.30;99.90
35563;DHT22;21665;40.108;18.302;2023-03-16T22:07:38;10.00;99.90
35563;DHT22;21665;40.108;18.302;2023-03-16T23:36:43;9.60;99.90
